Time;durP1;ratioP1;P1;durP2;ratioP2;P2;SDS_P1;SDS_P2;PMS_P1;PMS_P2;Temp;Humidity;BMP_temperature;BMP_pressure;BME280_temperature;BME280_humidity;BME280_pressure;Samples;Min_cycle;Max_cycle;Signal;HPM_P1;HPM_P2
2022/01/17 00:00:21;;;;;;;111.90;37.30;;;;;;;;;;4990732;28;20024;-68
2022/01/17 00:02:47;;;;;;;137.63;41.88;;;;;;;;;;4990823;28;20023;-68
2022/01/17 00:05:13;;;;;;;123.68;40.50;;;;;;;;;;4990552;28;20034;-69
2022/01/17 00:07:38;;;;;;;109.78;36.35;;;;;;;;;;4999626;23;20026;-70
2022/01/17 00:10:04;;;;;;;115.63;41.97;;;;;;;;;;5010597;28;20022;-69
2022/01/17 00:12:32;;;;;;;120.43;42.10;;;;;;;;;;5010728;28;20053;-68
2022/01/17 00:14:57;;;;;;;122.28;41.42;;;;;;;;;;5010180;28;20552;-69
2022/01/17 00:17:36;;;;;;;118.97;44.03;;;;;;;;;;5008951;28;20025;-68
2022/01/17 00:20:10;;;;;;;117.03;33.42;;;;;;;;;;4991391;28;20081;-68
2022/01/17 00:22:35;;;;;;;118.25;35.15;;;;;;;;;;4991117;28;20089;-68
2022/01/17 00:25:01;;;;;;;117.40;40.67;;;;;;;;;;4990828;28;20018;-68
2022/01/17 00:27:26;;;;;;;119.65;43.30;;;;;;;;;;4990342;28;20407;-68
2022/01/17 00:29:51;;;;;;;98.10;31.05;;;;;;;;;;4990403;28;20014;-69
2022/01/17 00:32:18;;;;;;;98.68;28.83;;;;;;;;;;4990412;28;20521;-69
2022/01/17 00:34:44;;;;;;;119.07;45.42;;;;;;;;;;4990418;28;20034;-70
2022/01/17 00:37:09;;;;;;;107.15;30.35;;;;;;;;;;4990369;28;20433;-68
2022/01/17 00:39:34;;;;;;;107.90;33.97;;;;;;;;;;4989804;28;20028;-70
2022/01/17 00:42:00;;;;;;;113.78;35.47;;;;;;;;;;4989945;28;20074;-70
2022/01/17 00:44:25;;;;;;;89.35;29.05;;;;;;;;;;4990465;28;20069;-70
2022/01/17 00:46:51;;;;;;;121.65;43.75;;;;;;;;;;4990384;28;20529;-69
2022/01/17 00:49:16;;;;;;;94.93;30.60;;;;;;;;;;5007121;28;20483;-70
2022/01/17 00:51:42;;;;;;;93.40;27.60;;;;;;;;;;4993782;28;20026;-70
2022/01/17 00:54:07;;;;;;;116.57;36.15;;;;;;;;;;4993993;28;20434;-69
2022/01/17 00:56:33;;;;;;;111.20;35.55;;;;;;;;;;4994281;28;20021;-69
2022/01/17 00:58:58;;;;;;;105.70;35.58;;;;;;;;;;4993712;28;20383;-69
2022/01/17 01:01:23;;;;;;;109.50;37.67;;;;;;;;;;4994053;28;20029;-69
2022/01/17 01:03:48;;;;;;;99.32;29.35;;;;;;;;;;4994091;28;20522;-69
2022/01/17 01:06:14;;;;;;;107.50;29.67;;;;;;;;;;4994102;28;20062;-69
2022/01/17 01:08:39;;;;;;;107.03;31.23;;;;;;;;;;4993547;28;20048;-69
2022/01/17 01:11:05;;;;;;;93.90;30.63;;;;;;;;;;4994150;28;20034;-69
2022/01/17 01:13:31;;;;;;;104.35;31.00;;;;;;;;;;4990735;28;20073;-69
2022/01/17 01:29:11;;;;;;;105.30;33.72;;;;;;;;;;4993314;28;20041;-70
2022/01/17 01:34:15;;;;;;;94.25;29.95;;;;;;;;;;4994023;28;20552;-69
2022/01/17 01:36:41;;;;;;;112.85;32.13;;;;;;;;;;4993535;28;20026;-69
2022/01/17 01:39:07;;;;;;;105.53;30.05;;;;;;;;;;4993349;28;20505;-69
2022/01/17 01:41:40;;;;;;;106.57;30.75;;;;;;;;;;4993116;28;20018;-69
2022/01/17 01:44:10;;;;;;;101.05;30.70;;;;;;;;;;4993493;28;20095;-68
2022/01/17 01:46:35;;;;;;;102.38;31.17;;;;;;;;;;4991689;28;20518;-69
2022/01/17 01:49:01;;;;;;;113.55;31.95;;;;;;;;;;4993013;28;20042;-69
2022/01/17 01:51:26;;;;;;;95.20;30.25;;;;;;;;;;4993078;28;20018;-69
2022/01/17 01:53:51;;;;;;;131.93;46.13;;;;;;;;;;4993530;28;20030;-69
2022/01/17 01:56:16;;;;;;;136.05;45.83;;;;;;;;;;4992255;28;20025;-69
2022/01/17 01:58:42;;;;;;;113.70;32.53;;;;;;;;;;4992451;28;20066;-69
2022/01/17 02:01:07;;;;;;;116.32;32.47;;;;;;;;;;4992657;28;20021;-68
2022/01/17 02:03:32;;;;;;;132.43;39.72;;;;;;;;;;5008214;28;20083;-68
2022/01/17 02:05:57;;;;;;;146.02;49.15;;;;;;;;;;4993085;28;20069;-70
2022/01/17 02:08:22;;;;;;;121.28;40.83;;;;;;;;;;4992415;28;20073;-69
2022/01/17 02:10:48;;;;;;;125.57;34.00;;;;;;;;;;4993338;28;20077;-70
2022/01/17 02:13:13;;;;;;;129.15;37.75;;;;;;;;;;4992932;28;20018;-68
2022/01/17 02:15:40;;;;;;;113.05;31.73;;;;;;;;;;4992418;28;20066;-69
2022/01/17 02:18:07;;;;;;;119.22;40.10;;;;;;;;;;4992519;28;20023;-69
2022/01/17 02:20:43;;;;;;;126.13;35.00;;;;;;;;;;4992556;28;20046;-70
2022/01/17 02:23:09;;;;;;;113.32;32.22;;;;;;;;;;4991664;28;20011;-69
2022/01/17 02:25:34;;;;;;;129.77;35.83;;;;;;;;;;4992836;28;20104;-69
2022/01/17 02:27:59;;;;;;;122.38;33.35;;;;;;;;;;4992445;28;20551;-70
2022/01/17 02:30:26;;;;;;;130.15;37.08;;;;;;;;;;4992110;28;20506;-69
2022/01/17 02:32:51;;;;;;;127.15;36.75;;;;;;;;;;4992323;28;20669;-68
2022/01/17 02:35:18;;;;;;;126.97;34.63;;;;;;;;;;4992516;28;20030;-69
2022/01/17 02:37:43;;;;;;;130.75;39.60;;;;;;;;;;4991854;28;20022;-69
2022/01/17 02:40:09;;;;;;;146.13;37.67;;;;;;;;;;4992728;28;20033;-70
2022/01/17 02:42:35;;;;;;;115.72;33.67;;;;;;;;;;4992132;28;20029;-70
2022/01/17 02:45:10;;;;;;;149.80;44.63;;;;;;;;;;4992661;28;20101;-69
2022/01/17 02:47:35;;;;;;;138.85;36.60;;;;;;;;;;4991496;28;20379;-69
2022/01/17 02:50:00;;;;;;;146.50;37.60;;;;;;;;;;4992241;28;20045;-70
2022/01/17 02:52:25;;;;;;;132.32;40.45;;;;;;;;;;4991878;28;20022;-69
2022/01/17 02:54:51;;;;;;;159.57;40.92;;;;;;;;;;4991643;28;20027;-69
2022/01/17 02:57:16;;;;;;;139.57;36.40;;;;;;;;;;4992339;28;20082;-71
2022/01/17 02:59:41;;;;;;;128.05;39.55;;;;;;;;;;4991547;28;20265;-68
2022/01/17 03:02:06;;;;;;;162.00;53.60;;;;;;;;;;4991628;28;20434;-68
2022/01/17 03:04:33;;;;;;;146.90;39.53;;;;;;;;;;4991866;28;20026;-68
2022/01/17 03:06:58;;;;;;;151.50;39.67;;;;;;;;;;4991939;28;20027;-69
2022/01/17 03:09:24;;;;;;;144.93;37.05;;;;;;;;;;4990215;28;20399;-70
2022/01/17 03:11:50;;;;;;;145.35;39.63;;;;;;;;;;4990378;28;20467;-69
2022/01/17 03:14:15;;;;;;;136.02;36.70;;;;;;;;;;4991844;28;20097;-68
2022/01/17 03:16:46;;;;;;;153.30;39.70;;;;;;;;;;4992070;28;20514;-68
2022/01/17 03:19:11;;;;;;;143.10;39.83;;;;;;;;;;4991166;28;20101;-68
2022/01/17 03:21:36;;;;;;;145.73;43.33;;;;;;;;;;4990779;28;20093;-68
2022/01/17 03:24:03;;;;;;;127.90;34.08;;;;;;;;;;4992212;28;20048;-68
2022/01/17 03:26:30;;;;;;;150.32;47.13;;;;;;;;;;4991012;28;20050;-69
2022/01/17 03:28:56;;;;;;;154.25;52.95;;;;;;;;;;4991373;28;20026;-69
2022/01/17 03:31:21;;;;;;;141.73;38.15;;;;;;;;;;4991473;28;20022;-69
2022/01/17 03:33:47;;;;;;;133.65;38.63;;;;;;;;;;4991413;28;20058;-69
2022/01/17 03:36:12;;;;;;;130.77;37.83;;;;;;;;;;4991351;28;20101;-69
2022/01/17 03:38:37;;;;;;;125.78;41.90;;;;;;;;;;4990998;28;20222;-69
2022/01/17 03:41:04;;;;;;;127.65;35.40;;;;;;;;;;4991405;28;20019;-69
2022/01/17 03:43:30;;;;;;;131.52;36.83;;;;;;;;;;4991255;28;20483;-68
2022/01/17 03:45:57;;;;;;;139.00;42.42;;;;;;;;;;4990617;28;20037;-68
2022/01/17 03:48:23;;;;;;;137.35;41.78;;;;;;;;;;4991328;28;20019;-69
2022/01/17 03:50:48;;;;;;;126.65;39.05;;;;;;;;;;4989387;28;20022;-68
2022/01/17 03:53:14;;;;;;;114.10;37.60;;;;;;;;;;4991285;28;20022;-68
2022/01/17 03:55:39;;;;;;;135.07;44.53;;;;;;;;;;4989815;28;20030;-69
2022/01/17 03:58:05;;;;;;;123.30;35.83;;;;;;;;;;4990581;28;20027;-68
2022/01/17 04:00:32;;;;;;;115.28;36.92;;;;;;;;;;4990668;28;20022;-69
2022/01/17 04:02:58;;;;;;;137.77;50.10;;;;;;;;;;4991238;28;20019;-69
2022/01/17 04:05:23;;;;;;;129.82;34.65;;;;;;;;;;4991160;28;20027;-68
2022/01/17 04:07:48;;;;;;;116.60;36.95;;;;;;;;;;4991110;28;20861;-68
2022/01/17 04:10:14;;;;;;;134.75;47.95;;;;;;;;;;4990711;28;20096;-69
2022/01/17 04:12:40;;;;;;;123.80;40.33;;;;;;;;;;4990758;28;20026;-69
2022/01/17 04:15:07;;;;;;;130.55;38.78;;;;;;;;;;4990382;28;20026;-68
2022/01/17 04:17:32;;;;;;;122.53;36.92;;;;;;;;;;4990549;28;20026;-70
2022/01/17 04:20:06;;;;;;;128.32;38.15;;;;;;;;;;4990596;28;20077;-68
2022/01/17 04:22:39;;;;;;;116.68;35.83;;;;;;;;;;4990151;28;20023;-69
2022/01/17 04:25:04;;;;;;;131.70;36.95;;;;;;;;;;4987721;28;20050;-69
2022/01/17 04:27:30;;;;;;;120.28;36.03;;;;;;;;;;4990514;28;20072;-69
2022/01/17 04:29:55;;;;;;;121.65;37.33;;;;;;;;;;4990719;28;20497;-69
2022/01/17 04:32:20;;;;;;;114.70;35.63;;;;;;;;;;4991644;28;20033;-69
2022/01/17 04:34:45;;;;;;;136.27;37.83;;;;;;;;;;4990207;28;20029;-70
2022/01/17 04:37:10;;;;;;;106.37;35.70;;;;;;;;;;4990488;28;20023;-69
2022/01/17 04:39:36;;;;;;;122.35;42.40;;;;;;;;;;4990287;28;20752;-70
2022/01/17 04:42:09;;;;;;;112.30;39.55;;;;;;;;;;4990252;28;20026;-69
2022/01/17 04:47:19;;;;;;;109.78;37.55;;;;;;;;;;4990521;28;20045;-69
2022/01/17 04:49:44;;;;;;;107.15;36.15;;;;;;;;;;4989933;28;20398;-68
2022/01/17 04:52:13;;;;;;;114.82;41.53;;;;;;;;;;4989833;28;20039;-69
2022/01/17 04:54:42;;;;;;;101.97;33.60;;;;;;;;;;4989373;28;20176;-68
2022/01/17 04:57:09;;;;;;;109.20;36.33;;;;;;;;;;4994793;28;20020;-69
2022/01/17 04:59:34;;;;;;;93.93;31.17;;;;;;;;;;4987236;28;20037;-68
2022/01/17 05:01:59;;;;;;;92.28;31.80;;;;;;;;;;4988011;28;20014;-69
2022/01/17 05:04:24;;;;;;;99.10;32.35;;;;;;;;;;4988598;28;20030;-68
2022/01/17 05:06:50;;;;;;;106.47;35.33;;;;;;;;;;4988104;28;20049;-69
2022/01/17 05:09:17;;;;;;;97.32;33.30;;;;;;;;;;4988285;28;20042;-69
2022/01/17 05:11:43;;;;;;;105.72;37.95;;;;;;;;;;4988654;28;20483;-68
2022/01/17 05:14:08;;;;;;;103.45;36.90;;;;;;;;;;4988427;28;20037;-69
2022/01/17 05:16:39;;;;;;;85.70;30.30;;;;;;;;;;4988376;28;20402;-69
2022/01/17 05:21:48;;;;;;;98.03;35.67;;;;;;;;;;4991856;28;20086;-69
2022/01/17 05:24:13;;;;;;;85.53;31.42;;;;;;;;;;4990593;28;20613;-69
2022/01/17 05:26:38;;;;;;;98.60;36.92;;;;;;;;;;4990202;28;20724;-69
2022/01/17 05:29:03;;;;;;;92.95;31.05;;;;;;;;;;4991105;28;20551;-70
2022/01/17 05:31:28;;;;;;;82.50;28.55;;;;;;;;;;4990241;28;20036;-69
2022/01/17 05:33:54;;;;;;;86.95;30.70;;;;;;;;;;4987971;28;20042;-69
2022/01/17 05:36:19;;;;;;;90.60;32.00;;;;;;;;;;4992089;28;20029;-69
2022/01/17 05:38:44;;;;;;;85.32;29.80;;;;;;;;;;4991693;28;20033;-69
2022/01/17 05:41:09;;;;;;;97.28;33.85;;;;;;;;;;4992083;28;20700;-68
2022/01/17 05:43:34;;;;;;;86.68;31.88;;;;;;;;;;4992570;28;20374;-69
2022/01/17 05:45:59;;;;;;;91.78;29.25;;;;;;;;;;5005058;28;20617;-68
2022/01/17 05:48:25;;;;;;;91.55;31.00;;;;;;;;;;5004459;28;20037;-70
2022/01/17 05:50:50;;;;;;;91.85;31.10;;;;;;;;;;4994700;28;20027;-68
2022/01/17 05:53:16;;;;;;;86.25;29.35;;;;;;;;;;4994901;28;20050;-68
2022/01/17 05:55:41;;;;;;;89.43;34.00;;;;;;;;;;4994736;28;20026;-68
2022/01/17 05:58:06;;;;;;;91.72;29.88;;;;;;;;;;4998427;28;20048;-69
2022/01/17 06:00:32;;;;;;;78.32;27.42;;;;;;;;;;5000015;28;20029;-69
2022/01/17 06:02:57;;;;;;;91.68;31.33;;;;;;;;;;5002819;28;20055;-68
2022/01/17 06:05:22;;;;;;;89.55;29.60;;;;;;;;;;4992501;28;20101;-69
2022/01/17 06:07:47;;;;;;;92.30;31.13;;;;;;;;;;5008726;28;20023;-68
2022/01/17 06:10:12;;;;;;;93.15;33.10;;;;;;;;;;5040462;23;20136;-64
2022/01/17 06:12:38;;;;;;;79.03;32.45;;;;;;;;;;5033695;28;20467;-65
2022/01/17 06:15:03;;;;;;;92.70;30.33;;;;;;;;;;5028373;28;20128;-65
2022/01/17 06:17:29;;;;;;;78.35;28.70;;;;;;;;;;5028472;28;20268;-65
2022/01/17 06:19:54;;;;;;;81.60;26.90;;;;;;;;;;5015380;28;20018;-64
2022/01/17 06:22:19;;;;;;;92.70;29.30;;;;;;;;;;5022549;28;20478;-66
2022/01/17 06:24:44;;;;;;;76.57;27.75;;;;;;;;;;5029606;28;20037;-65
2022/01/17 06:27:09;;;;;;;85.18;29.88;;;;;;;;;;5009923;28;20433;-64
2022/01/17 06:29:35;;;;;;;85.70;29.85;;;;;;;;;;5009629;28;20461;-65
2022/01/17 06:32:00;;;;;;;81.55;29.25;;;;;;;;;;5009550;28;20034;-64
2022/01/17 06:34:25;;;;;;;76.30;25.60;;;;;;;;;;5009641;28;20437;-65
2022/01/17 06:36:50;;;;;;;69.57;25.88;;;;;;;;;;5008851;28;20083;-65
2022/01/17 06:39:16;;;;;;;67.93;25.73;;;;;;;;;;5009464;28;20622;-65
2022/01/17 06:41:41;;;;;;;87.13;31.67;;;;;;;;;;5015606;28;20462;-65
2022/01/17 06:44:06;;;;;;;78.22;29.33;;;;;;;;;;5020757;28;20026;-65
2022/01/17 06:46:31;;;;;;;79.63;29.63;;;;;;;;;;5007961;28;20049;-65
2022/01/17 06:48:57;;;;;;;87.40;27.33;;;;;;;;;;5009543;28;20375;-65
2022/01/17 06:51:22;;;;;;;67.15;25.77;;;;;;;;;;5009752;28;20026;-66
2022/01/17 06:53:48;;;;;;;69.70;24.73;;;;;;;;;;5009245;28;20030;-66
2022/01/17 06:56:14;;;;;;;72.38;23.83;;;;;;;;;;5009716;28;20438;-65
2022/01/17 06:58:40;;;;;;;63.38;22.88;;;;;;;;;;5008702;28;20029;-66
2022/01/17 07:01:06;;;;;;;73.13;26.88;;;;;;;;;;5010486;28;20041;-66
2022/01/17 07:03:31;;;;;;;67.15;23.10;;;;;;;;;;5015981;28;20044;-66
2022/01/17 07:05:57;;;;;;;75.82;28.30;;;;;;;;;;5010416;28;20022;-66
2022/01/17 07:08:22;;;;;;;69.03;28.60;;;;;;;;;;5010909;28;20076;-66
2022/01/17 07:10:47;;;;;;;63.08;24.10;;;;;;;;;;5010443;28;20084;-66
2022/01/17 07:13:12;;;;;;;73.38;29.02;;;;;;;;;;5016041;28;20124;-66
2022/01/17 07:15:38;;;;;;;73.78;29.00;;;;;;;;;;5012786;28;20030;-66
2022/01/17 07:18:03;;;;;;;65.97;30.70;;;;;;;;;;5011366;28;20121;-65
2022/01/17 07:20:28;;;;;;;64.25;21.90;;;;;;;;;;5008638;28;20022;-66
2022/01/17 07:22:53;;;;;;;63.10;23.50;;;;;;;;;;5009601;28;20383;-66
2022/01/17 07:25:19;;;;;;;65.50;24.40;;;;;;;;;;5011492;28;20029;-67
2022/01/17 07:27:44;;;;;;;69.93;27.23;;;;;;;;;;5009999;28;20025;-65
2022/01/17 07:30:10;;;;;;;58.17;24.70;;;;;;;;;;5011298;28;20030;-66
2022/01/17 07:32:35;;;;;;;63.50;24.40;;;;;;;;;;5010978;28;20025;-66
2022/01/17 07:35:02;;;;;;;66.32;23.73;;;;;;;;;;5010677;28;20217;-66
2022/01/17 07:37:27;;;;;;;74.13;25.33;;;;;;;;;;5010413;28;20018;-66
2022/01/17 07:39:52;;;;;;;64.63;22.92;;;;;;;;;;5010214;28;20466;-67
2022/01/17 07:42:17;;;;;;;64.77;23.07;;;;;;;;;;5010900;28;20068;-66
2022/01/17 07:44:44;;;;;;;66.63;21.58;;;;;;;;;;5010684;28;20272;-67
2022/01/17 07:47:17;;;;;;;68.18;23.52;;;;;;;;;;5010899;28;20021;-67
2022/01/17 07:49:44;;;;;;;57.33;19.98;;;;;;;;;;5010312;28;20033;-67
2022/01/17 07:52:10;;;;;;;59.25;23.27;;;;;;;;;;5010537;28;20486;-66
2022/01/17 07:54:37;;;;;;;60.85;23.70;;;;;;;;;;5010531;28;20014;-67
2022/01/17 07:57:03;;;;;;;66.95;23.60;;;;;;;;;;5010467;28;20434;-67
2022/01/17 07:59:28;;;;;;;59.10;20.08;;;;;;;;;;5010206;28;20018;-67
2022/01/17 08:01:54;;;;;;;53.55;20.15;;;;;;;;;;5010349;28;20109;-67
2022/01/17 08:04:19;;;;;;;64.00;26.48;;;;;;;;;;5009617;28;20389;-66
2022/01/17 08:06:46;;;;;;;71.07;27.63;;;;;;;;;;5010382;28;20029;-67
2022/01/17 08:09:17;;;;;;;68.07;24.00;;;;;;;;;;5009447;28;20029;-67
2022/01/17 08:11:42;;;;;;;67.10;25.33;;;;;;;;;;5010125;28;20037;-67
2022/01/17 08:14:07;;;;;;;58.78;23.77;;;;;;;;;;5010637;28;20025;-66
2022/01/17 08:16:33;;;;;;;58.45;21.20;;;;;;;;;;5009745;28;20077;-67
2022/01/17 08:18:58;;;;;;;76.82;22.90;;;;;;;;;;5010210;28;20028;-67
2022/01/17 08:21:23;;;;;;;65.22;22.42;;;;;;;;;;5010681;28;20018;-67
2022/01/17 08:23:49;;;;;;;66.30;26.63;;;;;;;;;;5009142;28;20025;-65
2022/01/17 08:26:14;;;;;;;59.10;23.98;;;;;;;;;;5010055;28;20030;-67
2022/01/17 08:28:41;;;;;;;58.42;24.17;;;;;;;;;;5005226;28;20105;-67
2022/01/17 08:31:06;;;;;;;63.80;24.88;;;;;;;;;;5009444;28;20109;-67
2022/01/17 08:33:31;;;;;;;59.40;22.10;;;;;;;;;;5009707;28;20600;-67
2022/01/17 08:35:56;;;;;;;62.80;21.60;;;;;;;;;;5009766;28;20022;-67
2022/01/17 08:38:23;;;;;;;58.20;23.93;;;;;;;;;;5009190;28;20287;-67
2022/01/17 08:40:49;;;;;;;59.45;22.63;;;;;;;;;;5010239;28;20261;-67
2022/01/17 08:43:16;;;;;;;64.75;24.17;;;;;;;;;;5008760;28;20425;-67
2022/01/17 08:45:41;;;;;;;64.23;21.40;;;;;;;;;;5010114;28;20038;-68
2022/01/17 08:48:06;;;;;;;58.40;21.75;;;;;;;;;;5009372;28;20292;-66
2022/01/17 08:50:32;;;;;;;58.30;20.13;;;;;;;;;;5009641;28;20408;-67
2022/01/17 08:52:57;;;;;;;68.05;23.27;;;;;;;;;;5010152;28;20069;-66
2022/01/17 08:55:22;;;;;;;66.15;28.83;;;;;;;;;;5009716;28;20162;-67
2022/01/17 08:57:48;;;;;;;52.17;25.85;;;;;;;;;;5009535;28;20061;-68
2022/01/17 09:00:15;;;;;;;54.75;21.98;;;;;;;;;;5009302;28;20087;-67
2022/01/17 09:02:40;;;;;;;58.00;21.42;;;;;;;;;;5008749;28;20018;-67
2022/01/17 09:05:05;;;;;;;60.47;26.63;;;;;;;;;;5009615;28;20109;-67
2022/01/17 09:07:31;;;;;;;55.38;22.67;;;;;;;;;;5009757;28;20121;-67
2022/01/17 09:09:56;;;;;;;72.82;25.48;;;;;;;;;;5010797;28;20660;-67
2022/01/17 09:12:21;;;;;;;64.82;27.58;;;;;;;;;;5014151;28;20046;-66
2022/01/17 09:14:46;;;;;;;73.13;30.63;;;;;;;;;;5012860;28;20026;-67
2022/01/17 09:17:12;;;;;;;67.97;23.92;;;;;;;;;;5011904;28;20548;-67
2022/01/17 09:19:38;;;;;;;75.00;31.02;;;;;;;;;;5013407;28;20026;-67
2022/01/17 09:22:05;;;;;;;72.50;29.65;;;;;;;;;;5013213;28;20030;-67
2022/01/17 09:24:30;;;;;;;81.15;40.33;;;;;;;;;;5011623;28;20097;-67
2022/01/17 09:26:56;;;;;;;83.90;31.45;;;;;;;;;;5010346;28;20491;-67
2022/01/17 09:29:21;;;;;;;69.70;27.98;;;;;;;;;;5013032;28;20475;-67
2022/01/17 09:31:46;;;;;;;71.18;27.13;;;;;;;;;;5013197;28;20103;-66
2022/01/17 09:34:12;;;;;;;80.05;27.35;;;;;;;;;;5013474;28;20032;-66
2022/01/17 09:36:37;;;;;;;74.97;27.00;;;;;;;;;;5013193;28;20403;-66
2022/01/17 09:39:04;;;;;;;79.78;28.02;;;;;;;;;;5012824;28;20018;-66
2022/01/17 09:41:31;;;;;;;74.45;27.63;;;;;;;;;;5012544;28;20105;-67
2022/01/17 09:43:56;;;;;;;84.57;30.35;;;;;;;;;;5011150;28;20033;-66
2022/01/17 09:46:26;;;;;;;80.82;33.13;;;;;;;;;;5011038;28;20022;-67
2022/01/17 09:48:59;;;;;;;79.95;29.33;;;;;;;;;;5012494;28;20068;-66
2022/01/17 09:51:41;;;;;;;82.22;30.20;;;;;;;;;;5012999;28;20018;-67
2022/01/17 09:54:07;;;;;;;89.53;33.58;;;;;;;;;;5012597;28;20025;-67
2022/01/17 09:56:33;;;;;;;75.60;29.38;;;;;;;;;;5011586;28;20072;-68
2022/01/17 09:58:58;;;;;;;85.40;31.38;;;;;;;;;;5012007;28;20434;-67
2022/01/17 10:01:25;;;;;;;81.57;28.67;;;;;;;;;;5011805;28;20045;-67
2022/01/17 10:03:52;;;;;;;80.78;30.95;;;;;;;;;;5000883;28;20487;-66
2022/01/17 10:06:18;;;;;;;88.03;39.28;;;;;;;;;;5002663;28;20022;-67
2022/01/17 10:08:43;;;;;;;83.90;36.75;;;;;;;;;;5012008;28;20378;-67
2022/01/17 10:11:14;;;;;;;75.07;28.47;;;;;;;;;;5012588;28;20065;-66
2022/01/17 10:13:44;;;;;;;98.00;35.92;;;;;;;;;;5012475;28;20753;-66
2022/01/17 10:16:11;;;;;;;100.07;32.07;;;;;;;;;;5012259;28;20026;-67
2022/01/17 10:18:40;;;;;;;79.57;31.42;;;;;;;;;;5011438;28;20025;-67
2022/01/17 10:21:13;;;;;;;85.43;33.67;;;;;;;;;;5012087;28;20345;-66
2022/01/17 10:26:11;;;;;;;85.53;40.08;;;;;;;;;;5012348;28;20093;-67
2022/01/17 10:29:03;;;;;;;80.60;36.30;;;;;;;;;;5009843;28;20029;-67
2022/01/17 10:36:56;;;;;;;88.60;32.17;;;;;;;;;;5011308;28;20037;-66
2022/01/17 10:39:22;;;;;;;87.55;32.38;;;;;;;;;;5011291;28;20018;-66
2022/01/17 10:41:47;;;;;;;86.10;34.30;;;;;;;;;;5011808;28;20014;-67
2022/01/17 10:44:31;;;;;;;84.55;31.75;;;;;;;;;;5011532;28;20091;-67
2022/01/17 10:47:15;;;;;;;81.00;31.50;;;;;;;;;;5011116;28;20065;-67
2022/01/17 10:49:54;;;;;;;80.22;35.53;;;;;;;;;;5011805;28;20030;-67
2022/01/17 10:52:36;;;;;;;80.65;37.78;;;;;;;;;;5011611;28;20036;-67
2022/01/17 10:55:06;;;;;;;88.38;41.05;;;;;;;;;;5010993;28;20036;-67
2022/01/17 10:57:36;;;;;;;77.32;31.23;;;;;;;;;;5010825;28;20025;-67
2022/01/17 11:00:03;;;;;;;83.93;41.17;;;;;;;;;;5011002;28;20081;-67
2022/01/17 11:02:28;;;;;;;74.80;29.30;;;;;;;;;;5011381;28;20453;-66
2022/01/17 11:04:53;;;;;;;81.72;40.78;;;;;;;;;;5011682;28;20180;-67
2022/01/17 11:07:19;;;;;;;73.78;28.33;;;;;;;;;;5011348;28;20136;-67
2022/01/17 11:09:47;;;;;;;92.45;35.83;;;;;;;;;;5010602;28;20026;-67
2022/01/17 11:12:13;;;;;;;74.97;31.75;;;;;;;;;;5011158;28;20437;-66
2022/01/17 11:14:39;;;;;;;70.38;28.80;;;;;;;;;;4995055;28;20046;-66
2022/01/17 11:17:24;;;;;;;79.00;31.73;;;;;;;;;;5010393;28;20486;-67
2022/01/17 11:20:04;;;;;;;69.72;29.58;;;;;;;;;;5011299;28;20022;-66
2022/01/17 11:22:29;;;;;;;63.78;30.10;;;;;;;;;;5011159;28;20018;-67
2022/01/17 11:24:55;;;;;;;73.05;29.58;;;;;;;;;;5011245;28;20104;-66
2022/01/17 11:27:20;;;;;;;62.22;25.70;;;;;;;;;;5009946;28;20080;-67
2022/01/17 11:29:48;;;;;;;70.35;27.83;;;;;;;;;;5009543;28;20018;-66
2022/01/17 11:32:13;;;;;;;66.95;29.13;;;;;;;;;;5010210;28;20104;-67
2022/01/17 11:34:38;;;;;;;68.45;27.17;;;;;;;;;;5010856;28;20109;-66
2022/01/17 11:37:04;;;;;;;79.30;34.05;;;;;;;;;;5010753;28;20024;-66
2022/01/17 11:39:29;;;;;;;77.78;29.05;;;;;;;;;;5009802;28;20022;-67
2022/01/17 11:41:54;;;;;;;64.65;28.27;;;;;;;;;;5006253;28;20494;-66
2022/01/17 11:44:31;;;;;;;71.55;28.90;;;;;;;;;;5004315;28;20026;-66
2022/01/17 11:46:56;;;;;;;75.88;33.67;;;;;;;;;;5009177;28;20045;-67
2022/01/17 11:49:25;;;;;;;86.35;35.90;;;;;;;;;;5010065;28;20430;-67
2022/01/17 11:51:51;;;;;;;77.90;34.15;;;;;;;;;;5010514;28;20025;-67
2022/01/17 11:54:16;;;;;;;83.35;35.50;;;;;;;;;;5009951;28;20099;-65
2022/01/17 11:56:46;;;;;;;83.53;36.35;;;;;;;;;;5009379;28;20018;-66
2022/01/17 11:59:32;;;;;;;91.38;31.63;;;;;;;;;;5007674;28;20071;-67
2022/01/17 12:02:27;;;;;;;73.47;30.63;;;;;;;;;;5009925;28;20018;-66
2022/01/17 12:05:06;;;;;;;66.18;27.60;;;;;;;;;;4986469;28;20042;-67
2022/01/17 12:07:41;;;;;;;82.30;34.47;;;;;;;;;;5005308;28;20041;-66
2022/01/17 12:10:10;;;;;;;82.03;31.80;;;;;;;;;;5019218;23;20057;-68
2022/01/17 12:12:36;;;;;;;76.95;31.27;;;;;;;;;;4991700;28;20378;-67
2022/01/17 12:15:06;;;;;;;85.68;35.95;;;;;;;;;;4990635;28;20030;-67
2022/01/17 12:17:31;;;;;;;83.88;37.67;;;;;;;;;;4990439;28;20470;-68
2022/01/17 12:22:32;;;;;;;93.63;45.88;;;;;;;;;;4989932;28;20033;-67
2022/01/17 12:24:57;;;;;;;83.10;33.33;;;;;;;;;;4990181;28;20022;-66
2022/01/17 12:27:26;;;;;;;90.35;32.40;;;;;;;;;;4990360;28;20026;-67
2022/01/17 12:30:09;;;;;;;90.07;36.00;;;;;;;;;;4990260;28;20033;-68
2022/01/17 12:32:36;;;;;;;88.80;42.08;;;;;;;;;;4990454;28;20383;-68
2022/01/17 12:35:04;;;;;;;93.65;30.65;;;;;;;;;;4989287;28;20026;-68
2022/01/17 12:37:32;;;;;;;86.40;31.75;;;;;;;;;;4982873;28;20042;-68
2022/01/17 12:40:16;;;;;;;87.35;37.85;;;;;;;;;;4990455;28;20030;-67
2022/01/17 12:42:52;;;;;;;87.07;36.58;;;;;;;;;;4990052;28;20479;-68
2022/01/17 12:45:22;;;;;;;82.05;34.50;;;;;;;;;;4992643;28;20018;-68
2022/01/17 12:47:47;;;;;;;80.75;42.88;;;;;;;;;;4992683;28;20427;-68
2022/01/17 12:50:12;;;;;;;89.55;40.28;;;;;;;;;;4993679;28;20072;-68
2022/01/17 12:52:38;;;;;;;82.40;31.95;;;;;;;;;;4994112;28;20026;-69
2022/01/17 12:55:03;;;;;;;74.17;29.33;;;;;;;;;;4993383;28;20120;-67
2022/01/17 12:57:29;;;;;;;89.45;34.42;;;;;;;;;;4993995;28;20296;-68
2022/01/17 12:59:54;;;;;;;72.90;29.00;;;;;;;;;;4994307;28;20097;-67
2022/01/17 13:02:19;;;;;;;77.43;29.10;;;;;;;;;;4994304;28;20064;-67
2022/01/17 13:04:45;;;;;;;81.83;31.37;;;;;;;;;;4993445;28;20058;-67
2022/01/17 13:07:10;;;;;;;72.13;28.60;;;;;;;;;;4979569;28;20324;-67
2022/01/17 13:09:37;;;;;;;77.97;30.02;;;;;;;;;;4993420;28;20105;-68
2022/01/17 13:12:05;;;;;;;84.40;34.60;;;;;;;;;;4990737;28;20026;-67
2022/01/17 13:14:32;;;;;;;68.65;29.10;;;;;;;;;;4991998;28;20482;-67
2022/01/17 13:16:57;;;;;;;79.63;30.42;;;;;;;;;;4996133;28;20442;-68
2022/01/17 13:19:23;;;;;;;90.70;30.47;;;;;;;;;;4993640;28;20030;-66
2022/01/17 13:21:50;;;;;;;69.85;28.13;;;;;;;;;;4992192;28;20269;-67
2022/01/17 13:24:40;;;;;;;78.70;27.83;;;;;;;;;;4988959;28;20027;-67
2022/01/17 13:27:10;;;;;;;73.90;31.15;;;;;;;;;;4988902;28;20079;-68
2022/01/17 13:29:35;;;;;;;;;;;;;;;;;;5002738;28;20054;-68
2022/01/17 13:32:00;;;;;;;86.88;28.10;;;;;;;;;;4992776;28;19909;-68
2022/01/17 13:34:28;;;;;;;70.88;26.67;;;;;;;;;;4993003;28;20033;-67
2022/01/17 13:36:54;;;;;;;72.50;26.75;;;;;;;;;;5000852;28;20017;-66
2022/01/17 13:39:20;;;;;;;90.20;29.40;;;;;;;;;;4990341;28;20034;-67
2022/01/17 13:41:50;;;;;;;64.53;24.08;;;;;;;;;;5003349;28;20022;-67
2022/01/17 13:44:22;;;;;;;64.97;25.45;;;;;;;;;;4992293;28;20134;-68
2022/01/17 13:46:54;;;;;;;76.18;34.03;;;;;;;;;;4992472;28;20026;-67
2022/01/17 13:49:19;;;;;;;76.47;35.65;;;;;;;;;;4991945;28;20037;-67
2022/01/17 13:51:45;;;;;;;66.60;25.98;;;;;;;;;;4993295;28;20113;-67
2022/01/17 13:54:11;;;;;;;86.43;33.08;;;;;;;;;;4992343;28;20073;-67
2022/01/17 13:56:36;;;;;;;85.13;35.63;;;;;;;;;;4991604;28;20072;-67
2022/01/17 13:59:02;;;;;;;83.85;30.85;;;;;;;;;;4992024;28;20018;-67
2022/01/17 14:01:31;;;;;;;76.35;28.75;;;;;;;;;;4991854;28;20092;-67
2022/01/17 14:03:56;;;;;;;71.70;27.90;;;;;;;;;;4993316;28;20019;-67
2022/01/17 14:06:22;;;;;;;76.72;28.73;;;;;;;;;;4991803;28;20086;-67
2022/01/17 14:08:48;;;;;;;87.80;28.20;;;;;;;;;;4992733;28;20057;-67
2022/01/17 14:11:15;;;;;;;67.05;25.17;;;;;;;;;;4992054;28;20257;-67
2022/01/17 14:13:55;;;;;;;76.53;26.98;;;;;;;;;;4992490;28;20097;-66
2022/01/17 14:16:25;;;;;;;69.28;26.13;;;;;;;;;;4993002;28;20113;-67
2022/01/17 14:19:00;;;;;;;80.50;29.70;;;;;;;;;;4992399;28;20031;-67
2022/01/17 14:21:39;;;;;;;69.60;25.85;;;;;;;;;;4991912;28;20506;-68
2022/01/17 14:24:15;;;;;;;72.88;26.38;;;;;;;;;;4992698;28;20402;-67
2022/01/17 14:26:48;;;;;;;69.85;28.08;;;;;;;;;;4985751;28;20028;-67
2022/01/17 14:29:13;;;;;;;78.38;25.23;;;;;;;;;;4991017;28;20403;-67
2022/01/17 14:31:40;;;;;;;77.00;31.20;;;;;;;;;;4992874;28;20029;-67
2022/01/17 14:34:08;;;;;;;67.03;23.80;;;;;;;;;;4992176;28;20065;-67
2022/01/17 14:36:33;;;;;;;67.80;24.77;;;;;;;;;;4992385;28;20046;-67
2022/01/17 14:38:59;;;;;;;65.18;25.42;;;;;;;;;;4991756;28;20061;-67
2022/01/17 14:41:36;;;;;;;55.95;23.88;;;;;;;;;;4991869;28;20041;-66
2022/01/17 14:44:09;;;;;;;78.22;29.35;;;;;;;;;;4991804;28;20054;-67